Time;durP1;ratioP1;P1;durP2;ratioP2;P2;SDS_P1;SDS_P2;PMS_P1;PMS_P2;Temp;Humidity;BMP_temperature;BMP_pressure;BME280_temperature;BME280_humidity;BME280_pressure;Samples;Min_cycle;Max_cycle;Signal;HPM_P1;HPM_P2
2021/05/15 00:01:15;;;;;;;15.80;6.47;;;;;;;;;;6914984;28;20167;-86
2021/05/15 00:04:35;;;;;;;13.50;6.15;;;;;;;;;;6913635;28;20459;-87
2021/05/15 00:07:57;;;;;;;12.77;6.82;;;;;;;;;;6904978;28;20512;-87
2021/05/15 00:11:18;;;;;;;10.50;6.15;;;;;;;;;;6912739;28;20038;-86
2021/05/15 00:14:38;;;;;;;12.52;6.13;;;;;;;;;;6914680;28;20084;-86
2021/05/15 00:17:59;;;;;;;9.48;6.05;;;;;;;;;;6913445;28;20077;-86
2021/05/15 00:21:19;;;;;;;14.18;6.32;;;;;;;;;;6914319;28;20058;-86
2021/05/15 00:24:40;;;;;;;10.52;5.80;;;;;;;;;;6913888;28;20033;-86
2021/05/15 00:28:00;;;;;;;10.60;6.43;;;;;;;;;;6909464;28;20117;-86
2021/05/15 00:31:21;;;;;;;12.27;6.53;;;;;;;;;;6961928;23;20410;-78
2021/05/15 00:34:41;;;;;;;9.82;6.00;;;;;;;;;;6899971;28;20022;-77
2021/05/15 00:38:02;;;;;;;12.50;6.00;;;;;;;;;;6918604;28;20057;-77
2021/05/15 00:41:22;;;;;;;10.48;5.93;;;;;;;;;;6914614;28;20376;-77
2021/05/15 00:44:44;;;;;;;10.70;5.78;;;;;;;;;;6911540;28;20129;-77
2021/05/15 00:48:05;;;;;;;12.75;5.93;;;;;;;;;;6915951;28;20471;-77
2021/05/15 00:51:26;;;;;;;7.88;5.32;;;;;;;;;;6918073;28;20021;-77
2021/05/15 00:54:47;;;;;;;9.88;6.00;;;;;;;;;;6913509;28;20049;-77
2021/05/15 00:58:08;;;;;;;10.90;6.00;;;;;;;;;;6905663;28;20044;-77
2021/05/15 01:01:29;;;;;;;12.50;6.15;;;;;;;;;;6917439;28;20039;-77
2021/05/15 01:04:49;;;;;;;10.20;5.80;;;;;;;;;;6906093;28;20060;-77
2021/05/15 01:08:09;;;;;;;9.88;6.03;;;;;;;;;;6904492;28;20026;-77
2021/05/15 01:11:30;;;;;;;11.35;5.68;;;;;;;;;;6916651;28;20030;-79
2021/05/15 01:14:50;;;;;;;12.35;5.93;;;;;;;;;;6907809;28;20048;-77
2021/05/15 01:18:11;;;;;;;6.80;5.15;;;;;;;;;;6920903;28;20495;-77
2021/05/15 01:21:32;;;;;;;10.80;5.65;;;;;;;;;;6916415;28;20121;-77
2021/05/15 01:24:52;;;;;;;9.98;5.90;;;;;;;;;;6917893;28;20360;-78
2021/05/15 01:28:13;;;;;;;8.18;5.05;;;;;;;;;;6925449;28;20523;-76
2021/05/15 01:31:36;;;;;;;8.75;5.40;;;;;;;;;;6916258;28;20129;-77
2021/05/15 01:34:56;;;;;;;10.05;4.90;;;;;;;;;;6909853;28;20144;-77
2021/05/15 01:38:16;;;;;;;9.23;5.43;;;;;;;;;;6919213;28;20101;-77
2021/05/15 01:41:37;;;;;;;7.97;5.50;;;;;;;;;;6899019;28;20079;-77
2021/05/15 01:44:58;;;;;;;9.88;5.40;;;;;;;;;;6913034;28;20044;-77
2021/05/15 01:48:19;;;;;;;8.90;5.10;;;;;;;;;;6930607;28;20026;-77
2021/05/15 01:51:39;;;;;;;6.70;4.63;;;;;;;;;;6915752;28;20033;-78
2021/05/15 01:55:02;;;;;;;9.55;4.93;;;;;;;;;;6909498;28;20049;-78
2021/05/15 01:58:24;;;;;;;6.97;5.00;;;;;;;;;;6915432;28;20073;-78
2021/05/15 02:01:44;;;;;;;8.43;5.00;;;;;;;;;;6922035;28;20034;-78
2021/05/15 02:05:05;;;;;;;9.35;4.93;;;;;;;;;;6916339;28;20068;-77
2021/05/15 02:08:26;;;;;;;7.43;5.25;;;;;;;;;;6925424;28;20030;-78
2021/05/15 02:11:46;;;;;;;7.20;4.53;;;;;;;;;;6902651;28;20030;-77
2021/05/15 02:15:08;;;;;;;9.07;5.28;;;;;;;;;;6914764;28;20117;-77
2021/05/15 02:18:29;;;;;;;7.60;4.63;;;;;;;;;;6916690;28;20092;-77
2021/05/15 02:21:49;;;;;;;6.70;4.78;;;;;;;;;;6911120;28;20794;-77
2021/05/15 02:25:10;;;;;;;7.78;4.85;;;;;;;;;;6916113;28;20426;-77
2021/05/15 02:28:31;;;;;;;10.15;4.97;;;;;;;;;;6913213;28;20025;-77
2021/05/15 02:31:52;;;;;;;6.00;4.45;;;;;;;;;;6912610;28;20061;-78
2021/05/15 02:35:12;;;;;;;5.70;4.28;;;;;;;;;;6915959;28;20396;-77
2021/05/15 02:38:33;;;;;;;7.55;4.00;;;;;;;;;;6915123;28;20033;-77
2021/05/15 02:41:53;;;;;;;10.80;4.35;;;;;;;;;;6913943;28;20030;-77
2021/05/15 02:45:14;;;;;;;7.93;4.45;;;;;;;;;;6915446;28;20120;-77
2021/05/15 02:48:34;;;;;;;6.53;4.85;;;;;;;;;;6910649;28;20057;-78
2021/05/15 02:51:54;;;;;;;7.65;4.25;;;;;;;;;;6913787;28;20104;-77
2021/05/15 02:55:18;;;;;;;6.65;4.18;;;;;;;;;;6913288;28;20038;-77
2021/05/15 02:58:39;;;;;;;5.22;4.28;;;;;;;;;;6914993;28;20113;-78
2021/05/15 03:02:00;;;;;;;7.05;3.97;;;;;;;;;;6915275;28;20053;-77
2021/05/15 03:05:21;;;;;;;5.25;3.70;;;;;;;;;;6924053;28;20170;-77
2021/05/15 03:08:42;;;;;;;6.45;3.95;;;;;;;;;;6915145;28;20034;-78
2021/05/15 03:12:03;;;;;;;5.00;3.42;;;;;;;;;;6908826;28;20118;-77
2021/05/15 03:15:24;;;;;;;6.28;3.97;;;;;;;;;;6915033;28;20475;-78
2021/05/15 03:18:44;;;;;;;5.95;3.88;;;;;;;;;;6921972;28;20033;-78
2021/05/15 03:22:05;;;;;;;6.78;4.00;;;;;;;;;;6901921;28;20062;-77
2021/05/15 03:25:25;;;;;;;7.38;3.90;;;;;;;;;;6915767;28;20096;-77
2021/05/15 03:28:46;;;;;;;6.50;3.65;;;;;;;;;;6913801;28;20120;-77
2021/05/15 03:32:06;;;;;;;5.13;3.65;;;;;;;;;;6914475;28;20068;-77
2021/05/15 03:35:28;;;;;;;5.40;3.45;;;;;;;;;;6915320;28;20030;-77
2021/05/15 03:38:48;;;;;;;5.13;3.83;;;;;;;;;;6914792;28;20028;-78
2021/05/15 03:42:09;;;;;;;6.78;3.30;;;;;;;;;;6915278;28;20030;-77
2021/05/15 03:45:30;;;;;;;5.82;3.80;;;;;;;;;;6914516;28;20022;-77
2021/05/15 03:48:50;;;;;;;6.05;3.58;;;;;;;;;;6914993;28;20025;-77
2021/05/15 03:52:10;;;;;;;5.30;3.35;;;;;;;;;;6914566;28;20049;-77
2021/05/15 03:55:31;;;;;;;5.20;3.42;;;;;;;;;;6900843;28;20071;-77
2021/05/15 03:58:52;;;;;;;6.13;3.83;;;;;;;;;;6901592;28;20061;-77
2021/05/15 04:02:13;;;;;;;5.15;3.17;;;;;;;;;;6912664;28;20430;-78
2021/05/15 04:05:33;;;;;;;4.35;3.40;;;;;;;;;;6914389;28;20569;-77
2021/05/15 04:08:54;;;;;;;4.55;3.60;;;;;;;;;;6916349;28;20033;-77
2021/05/15 04:12:15;;;;;;;4.28;3.22;;;;;;;;;;6919592;28;20030;-77
2021/05/15 04:15:51;;;;;;;4.78;3.63;;;;;;;;;;6923603;28;20033;-76
2021/05/15 04:19:11;;;;;;;6.45;2.92;;;;;;;;;;6908264;28;20431;-77
2021/05/15 04:22:32;;;;;;;5.88;3.60;;;;;;;;;;6920253;28;20478;-77
2021/05/15 04:25:53;;;;;;;4.75;3.30;;;;;;;;;;6920129;28;20471;-77
2021/05/15 04:29:14;;;;;;;6.47;2.95;;;;;;;;;;6915891;28;20069;-77
2021/05/15 04:32:34;;;;;;;4.25;3.28;;;;;;;;;;6905236;28;20030;-77
2021/05/15 04:35:55;;;;;;;4.43;3.22;;;;;;;;;;6894865;28;20235;-77
2021/05/15 04:39:16;;;;;;;4.60;3.17;;;;;;;;;;6919079;28;20025;-77
2021/05/15 04:42:40;;;;;;;5.07;3.22;;;;;;;;;;6919018;28;20121;-77
2021/05/15 04:46:00;;;;;;;3.75;2.92;;;;;;;;;;6918244;28;20112;-77
2021/05/15 04:49:20;;;;;;;3.80;3.20;;;;;;;;;;6905234;28;20038;-77
2021/05/15 04:52:41;;;;;;;3.60;3.03;;;;;;;;;;6930325;28;20527;-77
2021/05/15 04:56:01;;;;;;;4.13;2.63;;;;;;;;;;6918804;28;20058;-77
2021/05/15 04:59:22;;;;;;;5.10;2.85;;;;;;;;;;6918851;28;20037;-78
2021/05/15 05:02:42;;;;;;;4.82;2.92;;;;;;;;;;6918136;28;20121;-77
2021/05/15 05:06:03;;;;;;;4.65;3.03;;;;;;;;;;6919186;28;20030;-77
2021/05/15 05:09:23;;;;;;;4.80;3.10;;;;;;;;;;6917975;28;20365;-77
2021/05/15 05:12:43;;;;;;;3.45;2.70;;;;;;;;;;6916363;28;20120;-77
2021/05/15 05:16:04;;;;;;;4.18;2.60;;;;;;;;;;6910707;28;20144;-77
2021/05/15 05:19:25;;;;;;;3.42;2.90;;;;;;;;;;6918508;28;20034;-77
2021/05/15 05:22:45;;;;;;;2.95;2.65;;;;;;;;;;6913507;28;20034;-77
2021/05/15 05:26:06;;;;;;;3.20;2.55;;;;;;;;;;6917448;28;20065;-77
2021/05/15 05:29:26;;;;;;;4.15;2.85;;;;;;;;;;6917923;28;20108;-78
2021/05/15 05:32:49;;;;;;;2.85;2.55;;;;;;;;;;6913202;28;20045;-77
2021/05/15 05:36:09;;;;;;;4.18;3.58;;;;;;;;;;6917480;28;20030;-77
2021/05/15 05:39:31;;;;;;;5.18;4.15;;;;;;;;;;6917637;28;20116;-77
2021/05/15 05:42:51;;;;;;;4.65;3.60;;;;;;;;;;6916794;28;20125;-77
2021/05/15 05:46:12;;;;;;;8.68;7.97;;;;;;;;;;6917939;28;20092;-79
2021/05/15 05:49:32;;;;;;;8.73;7.93;;;;;;;;;;6917069;28;20113;-79
2021/05/15 05:52:55;;;;;;;7.68;6.97;;;;;;;;;;6917426;28;20101;-78
2021/05/15 05:56:16;;;;;;;4.07;3.00;;;;;;;;;;6916919;28;20037;-77
2021/05/15 05:59:36;;;;;;;4.00;2.92;;;;;;;;;;6916975;28;20053;-77
2021/05/15 06:02:56;;;;;;;3.10;2.60;;;;;;;;;;6915857;28;20053;-77
2021/05/15 06:06:17;;;;;;;4.25;2.60;;;;;;;;;;6917067;28;20058;-77
2021/05/15 06:09:37;;;;;;;2.70;2.50;;;;;;;;;;6915003;28;20025;-78
2021/05/15 06:12:58;;;;;;;3.30;2.75;;;;;;;;;;6916309;28;20521;-78
2021/05/15 06:16:18;;;;;;;4.10;3.20;;;;;;;;;;6915425;28;20104;-79
2021/05/15 06:19:40;;;;;;;3.95;2.95;;;;;;;;;;6913909;28;20034;-80
2021/05/15 06:23:00;;;;;;;3.90;2.72;;;;;;;;;;6910538;28;20054;-80
2021/05/15 06:26:21;;;;;;;3.50;2.35;;;;;;;;;;6902048;28;20037;-82
2021/05/15 06:29:41;;;;;;;2.40;2.20;;;;;;;;;;6910872;28;20058;-81
2021/05/15 06:33:02;;;;;;;4.00;2.38;;;;;;;;;;6921421;28;20121;-81
2021/05/15 06:36:22;;;;;;;10.95;1.92;;;;;;;;;;6924231;28;20060;-82
2021/05/15 06:39:43;;;;;;;4.43;1.80;;;;;;;;;;6921133;28;20036;-81
2021/05/15 06:43:03;;;;;;;6.95;2.08;;;;;;;;;;6913232;28;20128;-81
2021/05/15 06:46:24;;;;;;;7.10;1.95;;;;;;;;;;6915526;28;20594;-82
2021/05/15 06:49:45;;;;;;;1.27;1.17;;;;;;;;;;6916633;28;20026;-81
2021/05/15 06:53:05;;;;;;;3.25;1.30;;;;;;;;;;6915494;28;20108;-81
2021/05/15 06:56:26;;;;;;;3.08;1.58;;;;;;;;;;6913439;28;20041;-81
2021/05/15 06:59:47;;;;;;;5.35;1.90;;;;;;;;;;6918335;28;20071;-81
2021/05/15 07:03:08;;;;;;;4.57;1.48;;;;;;;;;;6915407;28;20042;-81
2021/05/15 07:06:28;;;;;;;2.83;1.38;;;;;;;;;;6917340;28;20387;-81
2021/05/15 07:09:52;;;;;;;2.47;1.65;;;;;;;;;;6909079;28;20120;-82
2021/05/15 07:13:13;;;;;;;5.90;1.50;;;;;;;;;;6922047;28;20045;-81
2021/05/15 07:16:33;;;;;;;1.92;1.35;;;;;;;;;;6915168;28;20030;-81
2021/05/15 07:19:54;;;;;;;2.40;1.42;;;;;;;;;;6915114;28;20387;-81
2021/05/15 07:23:15;;;;;;;5.80;1.50;;;;;;;;;;6914886;28;20038;-81
2021/05/15 07:26:36;;;;;;;2.78;1.08;;;;;;;;;;6915028;28;20026;-83
2021/05/15 07:29:56;;;;;;;81.78;4.55;;;;;;;;;;6920715;28;20050;-84
2021/05/15 07:33:17;;;;;;;8.45;1.40;;;;;;;;;;6918241;28;20034;-74
2021/05/15 07:36:37;;;;;;;6.30;1.20;;;;;;;;;;6907137;28;20547;-76
2021/05/15 07:39:58;;;;;;;22.40;1.70;;;;;;;;;;6917748;28;20033;-73
2021/05/15 07:43:26;;;;;;;13.02;1.80;;;;;;;;;;6902048;28;20109;-74
2021/05/15 07:46:46;;;;;;;7.35;2.03;;;;;;;;;;6893706;28;20049;-73
2021/05/15 07:50:07;;;;;;;10.98;1.38;;;;;;;;;;6912588;28;20427;-74
2021/05/15 07:53:28;;;;;;;3.10;1.20;;;;;;;;;;6897294;28;20037;-74
2021/05/15 07:56:49;;;;;;;2.00;1.10;;;;;;;;;;6915637;28;20022;-75
2021/05/15 08:00:12;;;;;;;5.78;1.30;;;;;;;;;;6923786;28;20108;-73
2021/05/15 08:03:33;;;;;;;3.78;1.17;;;;;;;;;;6909917;28;20117;-74
2021/05/15 08:06:53;;;;;;;1.98;0.98;;;;;;;;;;6895498;28;20045;-75
2021/05/15 08:10:13;;;;;;;5.75;1.23;;;;;;;;;;6897638;28;20053;-76
2021/05/15 08:13:34;;;;;;;4.00;1.35;;;;;;;;;;6896831;28;20039;-74
2021/05/15 08:16:55;;;;;;;11.73;1.45;;;;;;;;;;6917734;28;20037;-75
2021/05/15 08:20:16;;;;;;;7.60;1.63;;;;;;;;;;6917408;28;20061;-75
2021/05/15 08:23:40;;;;;;;6.18;1.80;;;;;;;;;;6905143;28;20422;-75
2021/05/15 08:27:00;;;;;;;11.68;1.60;;;;;;;;;;6932810;28;20116;-75
2021/05/15 08:30:22;;;;;;;7.18;1.73;;;;;;;;;;6932050;28;20419;-76
2021/05/15 08:33:42;;;;;;;2.75;1.55;;;;;;;;;;6911311;28;20043;-74
2021/05/15 08:37:03;;;;;;;5.35;1.58;;;;;;;;;;6906664;28;20034;-75
2021/05/15 08:40:27;;;;;;;3.15;1.40;;;;;;;;;;6903634;28;20030;-75
2021/05/15 08:43:48;;;;;;;3.35;1.60;;;;;;;;;;6893451;28;20030;-75
2021/05/15 08:47:09;;;;;;;4.70;1.30;;;;;;;;;;6911574;28;20033;-74
2021/05/15 08:50:30;;;;;;;2.35;1.10;;;;;;;;;;6907592;28;20144;-75
2021/05/15 08:53:51;;;;;;;3.67;1.17;;;;;;;;;;6894836;28;20044;-75
2021/05/15 08:57:11;;;;;;;3.72;1.20;;;;;;;;;;6895772;28;20391;-74
2021/05/15 09:00:37;;;;;;;3.85;1.50;;;;;;;;;;6895015;28;20037;-75
2021/05/15 09:03:58;;;;;;;6.50;1.30;;;;;;;;;;6905669;28;20534;-75
2021/05/15 09:07:18;;;;;;;5.32;1.40;;;;;;;;;;6906050;28;20022;-74
2021/05/15 09:10:41;;;;;;;5.03;1.08;;;;;;;;;;6932922;28;20395;-74
2021/05/15 09:14:02;;;;;;;2.58;1.13;;;;;;;;;;6924863;28;20033;-74
2021/05/15 09:17:22;;;;;;;5.75;1.33;;;;;;;;;;6918130;28;20113;-74
2021/05/15 09:20:44;;;;;;;2.20;1.00;;;;;;;;;;6930412;28;20073;-74
2021/05/15 09:24:06;;;;;;;9.77;1.30;;;;;;;;;;6905905;28;20083;-74
2021/05/15 09:27:34;;;;;;;6.32;1.10;;;;;;;;;;6928204;28;20061;-74
2021/05/15 09:30:54;;;;;;;5.25;1.25;;;;;;;;;;6931909;28;20042;-74
2021/05/15 09:34:15;;;;;;;3.95;1.27;;;;;;;;;;6931075;28;20034;-74
2021/05/15 09:37:38;;;;;;;4.80;1.20;;;;;;;;;;6938552;28;20060;-76
2021/05/15 09:40:58;;;;;;;9.05;1.15;;;;;;;;;;6909054;28;20034;-75
2021/05/15 09:44:19;;;;;;;2.97;1.00;;;;;;;;;;6912909;28;20112;-74
2021/05/15 09:47:58;;;;;;;4.00;1.20;;;;;;;;;;6896276;28;20041;-74
2021/05/15 09:51:19;;;;;;;3.08;0.98;;;;;;;;;;6895289;28;20117;-74
2021/05/15 09:54:43;;;;;;;5.18;1.02;;;;;;;;;;6908559;28;20119;-75
2021/05/15 09:58:05;;;;;;;4.00;1.38;;;;;;;;;;6911489;28;20041;-74
2021/05/15 10:01:25;;;;;;;2.80;1.10;;;;;;;;;;6899847;28;20027;-74
2021/05/15 10:04:48;;;;;;;6.10;1.30;;;;;;;;;;6921049;28;20033;-74
2021/05/15 10:08:08;;;;;;;3.78;1.00;;;;;;;;;;6910678;28;20403;-74
2021/05/15 10:11:29;;;;;;;8.68;1.40;;;;;;;;;;6898396;28;20463;-74
2021/05/15 10:14:50;;;;;;;2.38;0.95;;;;;;;;;;6915425;28;20053;-74
2021/05/15 10:18:10;;;;;;;2.72;1.00;;;;;;;;;;6917826;28;20038;-74
2021/05/15 10:21:30;;;;;;;2.50;1.10;;;;;;;;;;6912201;28;20033;-74
2021/05/15 10:24:51;;;;;;;5.20;1.30;;;;;;;;;;6913004;28;20133;-74
2021/05/15 10:28:11;;;;;;;2.30;0.95;;;;;;;;;;6915806;28;20133;-74
2021/05/15 10:31:44;;;;;;;2.80;1.17;;;;;;;;;;6917345;28;20053;-74
2021/05/15 10:35:07;;;;;;;4.20;1.23;;;;;;;;;;6905812;28;20425;-74
2021/05/15 10:38:36;;;;;;;3.35;1.60;;;;;;;;;;6910623;28;20038;-74
2021/05/15 10:41:58;;;;;;;2.38;1.20;;;;;;;;;;6907468;28;20048;-74
2021/05/15 10:45:32;;;;;;;1.27;0.93;;;;;;;;;;6920849;28;20022;-75
2021/05/15 10:49:02;;;;;;;3.22;1.10;;;;;;;;;;6915442;28;20487;-74
2021/05/15 10:52:24;;;;;;;4.22;1.20;;;;;;;;;;6911426;28;20025;-75
2021/05/15 10:56:02;;;;;;;1.23;0.82;;;;;;;;;;6901593;28;20150;-74
2021/05/15 10:59:22;;;;;;;3.78;1.20;;;;;;;;;;6909145;28;20468;-75
2021/05/15 11:02:43;;;;;;;3.00;1.02;;;;;;;;;;6915014;28;20101;-74
2021/05/15 11:06:32;;;;;;;2.40;1.15;;;;;;;;;;6916149;28;20420;-75
2021/05/15 11:09:58;;;;;;;3.65;1.23;;;;;;;;;;6899031;28;20100;-76
2021/05/15 11:13:19;;;;;;;3.50;0.90;;;;;;;;;;6911761;28;20487;-76
2021/05/15 11:16:41;;;;;;;4.82;1.23;;;;;;;;;;6915195;28;20087;-75
2021/05/15 11:20:05;;;;;;;2.58;1.15;;;;;;;;;;6904167;28;20062;-76
2021/05/15 11:23:25;;;;;;;5.22;1.92;;;;;;;;;;6908055;28;20022;-75
2021/05/15 11:26:51;;;;;;;2.60;1.23;;;;;;;;;;6934654;28;20453;-75
2021/05/15 11:30:22;;;;;;;2.97;1.13;;;;;;;;;;6920967;28;20129;-76
2021/05/15 11:33:44;;;;;;;2.53;1.25;;;;;;;;;;6907314;28;20061;-76
2021/05/15 11:37:04;;;;;;;5.70;1.08;;;;;;;;;;6911710;28;20522;-76
2021/05/15 11:40:25;;;;;;;4.60;1.20;;;;;;;;;;6903374;28;20022;-76
2021/05/15 11:43:49;;;;;;;1.55;0.90;;;;;;;;;;6913417;28;20096;-77
2021/05/15 11:47:11;;;;;;;2.67;1.13;;;;;;;;;;6910695;28;20038;-76
2021/05/15 11:50:31;;;;;;;2.60;1.15;;;;;;;;;;6908344;28;20507;-76
2021/05/15 11:53:54;;;;;;;6.15;1.10;;;;;;;;;;6914404;28;20038;-76
2021/05/15 11:57:25;;;;;;;12.30;1.70;;;;;;;;;;6913406;28;20108;-76
2021/05/15 12:00:46;;;;;;;3.70;1.10;;;;;;;;;;6914926;28;20390;-76
2021/05/15 12:04:08;;;;;;;1.88;1.00;;;;;;;;;;6910997;28;20053;-76
2021/05/15 12:07:29;;;;;;;2.95;1.38;;;;;;;;;;6909279;28;20022;-75
2021/05/15 12:10:49;;;;;;;3.20;1.13;;;;;;;;;;6915519;28;20022;-76
2021/05/15 12:14:13;;;;;;;1.77;0.88;;;;;;;;;;6909912;28;20460;-75
2021/05/15 12:17:34;;;;;;;6.75;1.10;;;;;;;;;;6915189;28;20451;-75
2021/05/15 12:20:55;;;;;;;3.00;1.10;;;;;;;;;;6920093;28;20041;-76
2021/05/15 12:24:15;;;;;;;1.80;1.00;;;;;;;;;;6903687;28;20156;-77
2021/05/15 12:27:36;;;;;;;6.72;1.33;;;;;;;;;;6905798;28;20034;-76
2021/05/15 12:42:15;;;;;;;7.60;1.23;;;;;;;;;;7580951;23;20059;-87
2021/05/15 12:45:38;;;;;;;3.30;1.05;;;;;;;;;;6809636;29;20047;-86
2021/05/15 12:49:05;;;;;;;2.42;1.40;;;;;;;;;;6800674;29;20127;-84
2021/05/15 12:52:26;;;;;;;4.15;1.05;;;;;;;;;;6797187;29;20047;-83
2021/05/15 12:55:51;;;;;;;3.28;1.00;;;;;;;;;;6791092;29;20130;-85
2021/05/15 12:59:11;;;;;;;7.03;1.10;;;;;;;;;;6798017;29;20031;-86
2021/05/15 13:02:31;;;;;;;5.70;1.00;;;;;;;;;;6796961;29;20154;-86
2021/05/15 13:05:52;;;;;;;9.63;1.42;;;;;;;;;;6793078;29;20042;-87
2021/05/15 13:09:13;;;;;;;3.40;1.05;;;;;;;;;;6797066;29;20051;-86
2021/05/15 13:12:33;;;;;;;8.07;1.15;;;;;;;;;;6799339;29;20139;-84
2021/05/15 13:15:54;;;;;;;3.67;1.10;;;;;;;;;;6809590;29;20039;-85
2021/05/15 13:19:15;;;;;;;7.97;1.23;;;;;;;;;;6821939;29;20027;-84
2021/05/15 13:22:35;;;;;;;3.90;1.20;;;;;;;;;;6812278;29;20043;-84
2021/05/15 13:25:56;;;;;;;1.65;1.00;;;;;;;;;;6812869;29;20122;-86
2021/05/15 13:29:16;;;;;;;4.38;1.00;;;;;;;;;;6826379;29;20027;-86
2021/05/15 13:32:37;;;;;;;3.58;1.33;;;;;;;;;;6826140;29;20032;-86
2021/05/15 13:35:58;;;;;;;12.68;1.50;;;;;;;;;;6826005;29;20083;-87
2021/05/15 13:39:18;;;;;;;7.63;1.40;;;;;;;;;;6805363;29;20027;-87
2021/05/15 13:42:39;;;;;;;6.90;1.42;;;;;;;;;;6809850;29;20043;-87
2021/05/15 13:45:59;;;;;;;11.18;1.50;;;;;;;;;;6811869;29;20099;-87
2021/05/15 13:49:21;;;;;;;5.60;1.30;;;;;;;;;;6812491;29;20062;-86
2021/05/15 13:52:41;;;;;;;4.97;1.30;;;;;;;;;;6818660;29;20044;-87
2021/05/15 13:56:03;;;;;;;5.97;1.23;;;;;;;;;;6810855;29;20063;-87
2021/05/15 13:59:23;;;;;;;6.53;1.27;;;;;;;;;;6810751;29;20123;-87
2021/05/15 14:02:44;;;;;;;11.02;1.48;;;;;;;;;;6809476;29;20104;-88
2021/05/15 14:06:05;;;;;;;5.95;1.73;;;;;;;;;;6812476;29;20051;-88
2021/05/15 14:09:25;;;;;;;12.35;1.27;;;;;;;;;;6811934;29;20107;-86
2021/05/15 14:12:45;;;;;;;7.63;1.50;;;;;;;;;;6810733;29;20067;-87
2021/05/15 14:16:06;;;;;;;7.13;1.00;;;;;;;;;;6812761;29;20071;-87
2021/05/15 14:19:26;;;;;;;5.53;1.30;;;;;;;;;;6811692;29;20034;-89
2021/05/15 14:22:47;;;;;;;5.20;1.55;;;;;;;;;;6812383;29;20024;-86
2021/05/15 14:26:07;;;;;;;3.85;1.17;;;;;;;;;;6782339;29;20055;-88
2021/05/15 14:29:27;;;;;;;4.97;1.33;;;;;;;;;;6819737;29;20038;-87
2021/05/15 14:32:48;;;;;;;3.50;1.02;;;;;;;;;;6812819;29;20069;-87
2021/05/15 14:36:09;;;;;;;1.77;1.10;;;;;;;;;;6824888;29;20437;-87
2021/05/15 14:39:29;;;;;;;3.65;1.20;;;;;;;;;;6812218;29;20066;-87
2021/05/15 14:42:50;;;;;;;2.42;1.27;;;;;;;;;;6824825;29;20126;-86
2021/05/15 14:46:10;;;;;;;3.42;1.25;;;;;;;;;;6796012;29;20059;-87
2021/05/15 14:49:31;;;;;;;5.35;1.20;;;;;;;;;;6802279;29;20039;-87
2021/05/15 14:52:51;;;;;;;2.42;1.20;;;;;;;;;;6802902;29;20040;-86
2021/05/15 14:56:17;;;;;;;5.35;1.13;;;;;;;;;;6817055;29;20074;-86
2021/05/15 14:59:38;;;;;;;3.63;1.23;;;;;;;;;;6794044;29;20442;-86
2021/05/15 15:02:59;;;;;;;2.45;1.35;;;;;;;;;;6810072;29;20031;-87
2021/05/15 15:06:19;;;;;;;2.58;1.10;;;;;;;;;;6811197;29;20067;-86
2021/05/15 15:09:39;;;;;;;4.03;1.10;;;;;;;;;;6807759;29;20119;-87
2021/05/15 15:13:00;;;;;;;8.48;0.98;;;;;;;;;;6823722;29;20087;-87
2021/05/15 15:16:20;;;;;;;4.07;1.00;;;;;;;;;;6802540;29;20406;-86
2021/05/15 15:19:41;;;;;;;4.35;1.00;;;;;;;;;;6805247;29;20039;-85
2021/05/15 15:23:02;;;;;;;2.78;1.20;;;;;;;;;;6795084;29;20036;-85
2021/05/15 15:26:23;;;;;;;2.95;1.10;;;;;;;;;;6810747;29;20059;-90
2021/05/15 15:29:43;;;;;;;4.03;1.15;;;;;;;;;;6810850;29;20492;-91
2021/05/15 15:33:05;;;;;;;10.93;1.50;;;;;;;;;;6807659;29;20084;-93
2021/05/15 15:36:25;;;;;;;3.33;1.27;;;;;;;;;;6805565;29;20086;-90
2021/05/15 15:39:46;;;;;;;4.43;1.30;;;;;;;;;;6810508;29;20387;-94
2021/05/15 15:43:06;;;;;;;3.67;1.15;;;;;;;;;;6803648;29;20071;-96
2021/05/15 15:46:29;;;;;;;5.07;1.10;;;;;;;;;;6810827;29;20031;-91
2021/05/15 15:49:49;;;;;;;4.38;1.10;;;;;;;;;;6810564;29;20036;-95
2021/05/15 15:53:10;;;;;;;1.48;0.95;;;;;;;;;;6810313;29;20315;-92
2021/05/15 15:56:30;;;;;;;6.03;1.17;;;;;;;;;;6804186;29;20039;-90
2021/05/15 15:59:50;;;;;;;2.67;1.00;;;;;;;;;;6792849;29;20039;-90
2021/05/15 16:03:13;;;;;;;4.75;1.27;;;;;;;;;;6805148;29;20055;-90
2021/05/15 16:06:34;;;;;;;3.97;1.65;;;;;;;;;;6807645;29;20034;-87
2021/05/15 16:09:54;;;;;;;2.47;1.20;;;;;;;;;;6813694;29;20133;-87
2021/05/15 16:13:16;;;;;;;1.48;1.20;;;;;;;;;;6803933;29;20109;-86
2021/05/15 16:16:36;;;;;;;2.08;1.02;;;;;;;;;;6814930;29;20489;-89
2021/05/15 16:19:57;;;;;;;1.60;1.05;;;;;;;;;;6804801;29;20043;-90
2021/05/15 16:23:18;;;;;;;4.90;1.35;;;;;;;;;;6807661;29;20028;-88
2021/05/15 16:26:38;;;;;;;4.72;1.10;;;;;;;;;;6799601;29;20374;-86
2021/05/15 16:29:59;;;;;;;1.67;0.93;;;;;;;;;;6810038;29;20554;-86
2021/05/15 16:33:19;;;;;;;3.08;1.02;;;;;;;;;;6803699;29;20059;-86
2021/05/15 16:36:44;;;;;;;6.13;1.02;;;;;;;;;;6813600;29;20051;-87
2021/05/15 16:40:06;;;;;;;4.65;1.10;;;;;;;;;;6793194;29;20044;-86
2021/05/15 16:43:27;;;;;;;4.75;1.58;;;;;;;;;;6810699;29;20062;-86
2021/05/15 16:46:47;;;;;;;2.38;1.00;;;;;;;;;;6805636;29;20031;-87
2021/05/15 16:50:08;;;;;;;6.43;1.13;;;;;;;;;;6795451;29;20111;-86
2021/05/15 16:53:29;;;;;;;2.45;0.90;;;;;;;;;;6806616;29;20430;-86
2021/05/15 16:56:49;;;;;;;2.90;1.05;;;;;;;;;;6805631;29;20538;-87
2021/05/15 17:00:10;;;;;;;3.05;1.13;;;;;;;;;;6808463;29;20070;-87
2021/05/15 17:03:30;;;;;;;4.03;1.10;;;;;;;;;;6812861;29;20426;-87
2021/05/15 17:06:51;;;;;;;1.38;0.88;;;;;;;;;;6809829;29;20027;-86
2021/05/15 17:10:12;;;;;;;4.18;1.10;;;;;;;;;;6807313;29;20031;-86
2021/05/15 17:13:33;;;;;;;1.45;0.80;;;;;;;;;;6813214;29;20031;-87
2021/05/15 17:16:53;;;;;;;2.28;1.05;;;;;;;;;;6806148;29;20083;-86
2021/05/15 17:20:14;;;;;;;3.08;0.90;;;;;;;;;;6813141;29;20489;-87
2021/05/15 17:23:34;;;;;;;0.80;0.80;;;;;;;;;;6822175;29;20102;-87
2021/05/15 17:26:59;;;;;;;3.72;1.05;;;;;;;;;;6817389;29;20039;-86
2021/05/15 17:30:19;;;;;;;2.67;0.80;;;;;;;;;;6812039;29;20023;-86
2021/05/15 17:33:40;;;;;;;2.15;0.80;;;;;;;;;;6821303;29;20027;-86
2021/05/15 17:37:03;;;;;;;1.85;1.10;;;;;;;;;;6825238;29;20093;-86
2021/05/15 17:40:23;;;;;;;2.42;1.00;;;;;;;;;;6801035;29;20031;-87
2021/05/15 17:43:43;;;;;;;1.48;0.90;;;;;;;;;;6807437;29;20063;-87
2021/05/15 17:47:04;;;;;;;1.70;0.85;;;;;;;;;;6813086;29;20066;-87
2021/05/15 17:50:24;;;;;;;8.65;0.90;;;;;;;;;;6804327;29;20036;-87
2021/05/15 17:53:47;;;;;;;2.25;1.00;;;;;;;;;;6791722;29;20063;-87
2021/05/15 17:57:08;;;;;;;4.03;0.93;;;;;;;;;;6803289;29;20036;-87
2021/05/15 18:00:28;;;;;;;7.35;1.23;;;;;;;;;;6811934;29;20055;-86
2021/05/15 18:03:49;;;;;;;3.47;1.48;;;;;;;;;;6811977;29;20085;-86
2021/05/15 18:07:10;;;;;;;4.45;1.00;;;;;;;;;;6791974;29;20040;-87
2021/05/15 18:10:30;;;;;;;1.75;1.05;;;;;;;;;;6789860;29;20589;-86
2021/05/15 18:13:51;;;;;;;1.15;0.98;;;;;;;;;;6796227;29;20063;-87
2021/05/15 18:17:12;;;;;;;2.47;1.10;;;;;;;;;;6792591;29;20133;-87
2021/05/15 18:20:32;;;;;;;3.20;1.00;;;;;;;;;;6808398;29;20032;-88
2021/05/15 18:23:52;;;;;;;3.55;1.20;;;;;;;;;;6807671;29;20062;-83
2021/05/15 18:27:13;;;;;;;13.05;2.00;;;;;;;;;;6806437;29;20161;-85
2021/05/15 18:30:33;;;;;;;15.85;1.92;;;;;;;;;;6810415;29;20118;-85
2021/05/15 18:33:54;;;;;;;8.63;2.40;;;;;;;;;;6811052;29;20172;-85
2021/05/15 18:37:15;;;;;;;15.32;2.35;;;;;;;;;;6810329;29;20036;-85
2021/05/15 18:40:35;;;;;;;10.65;1.70;;;;;;;;;;6808290;29;20038;-85
2021/05/15 18:43:56;;;;;;;9.55;2.25;;;;;;;;;;6810581;29;20142;-85
2021/05/15 18:47:17;;;;;;;5.75;1.60;;;;;;;;;;6800265;29;20072;-85
2021/05/15 18:50:38;;;;;;;7.10;1.42;;;;;;;;;;6818692;29;20485;-85
2021/05/15 18:53:58;;;;;;;6.47;1.88;;;;;;;;;;6809906;29;20038;-85
2021/05/15 18:57:19;;;;;;;6.18;1.80;;;;;;;;;;6813807;29;20378;-85
2021/05/15 19:00:39;;;;;;;7.60;1.70;;;;;;;;;;6791033;29;20535;-85
2021/05/15 19:04:00;;;;;;;3.78;1.45;;;;;;;;;;6800063;29;20023;-85
2021/05/15 19:07:20;;;;;;;7.22;1.90;;;;;;;;;;6804816;29;20114;-85
2021/05/15 19:10:41;;;;;;;8.43;1.70;;;;;;;;;;6786521;29;20092;-84
2021/05/15 19:14:01;;;;;;;6.65;1.83;;;;;;;;;;6800231;29;21292;-87
2021/05/15 19:17:22;;;;;;;9.82;1.48;;;;;;;;;;6798156;29;20471;-85
2021/05/15 19:20:42;;;;;;;8.50;1.58;;;;;;;;;;6804634;29;20114;-86
2021/05/15 19:24:03;;;;;;;2.83;1.33;;;;;;;;;;6810094;29;20046;-87
2021/05/15 19:27:24;;;;;;;5.45;1.85;;;;;;;;;;6802006;29;20032;-86
2021/05/15 19:30:44;;;;;;;5.68;1.65;;;;;;;;;;6808473;29;20027;-86
2021/05/15 19:34:05;;;;;;;5.03;1.10;;;;;;;;;;6809938;29;20038;-86
2021/05/15 19:37:26;;;;;;;6.15;1.70;;;;;;;;;;6809803;29;20726;-87
2021/05/15 19:40:46;;;;;;;4.80;1.48;;;;;;;;;;6804871;29;20082;-87
2021/05/15 19:44:10;;;;;;;4.93;1.17;;;;;;;;;;6814072;29;20031;-86
2021/05/15 19:47:33;;;;;;;6.20;1.52;;;;;;;;;;6802322;29;20047;-86
2021/05/15 19:50:55;;;;;;;2.92;1.40;;;;;;;;;;6816832;29;20036;-86
2021/05/15 19:54:32;;;;;;;5.05;1.55;;;;;;;;;;6829368;29;20040;-86
2021/05/15 19:57:52;;;;;;;3.60;1.23;;;;;;;;;;6808278;29;20545;-85
2021/05/15 20:01:13;;;;;;;3.72;1.30;;;;;;;;;;6825185;29;20043;-86
2021/05/15 20:04:33;;;;;;;4.35;1.40;;;;;;;;;;6810513;29;20039;-86
2021/05/15 20:07:54;;;;;;;3.28;1.30;;;;;;;;;;6813758;29;20066;-87
2021/05/15 20:11:15;;;;;;;3.55;1.15;;;;;;;;;;6814605;29;20454;-86
2021/05/15 20:14:36;;;;;;;3.83;1.38;;;;;;;;;;6813429;29;20116;-85